Time;durP1;ratioP1;P1;durP2;ratioP2;P2;SDS_P1;SDS_P2;PMS_P1;PMS_P2;Temp;Humidity;BMP_temperature;BMP_pressure;BME280_temperature;BME280_humidity;BME280_pressure;Samples;Min_cycle;Max_cycle;Signal;HPM_P1;HPM_P2
2022/08/18 00:05:02;;;;;;;1.92;1.83;;;;;;;20.62;61.94;96399.50;10500174;28;20048;-60
2022/08/18 00:10:22;;;;;;;1.58;1.48;;;;;;;20.62;62.05;96390.59;10531560;28;20112;-61
2022/08/18 00:15:41;;;;;;;1.70;1.60;;;;;;;20.63;61.85;96392.94;10527717;28;20053;-61
2022/08/18 00:21:01;;;;;;;1.63;1.50;;;;;;;20.62;62.02;96388.69;10527125;28;20052;-61
2022/08/18 00:26:21;;;;;;;1.45;1.35;;;;;;;20.63;62.06;96392.19;10507462;28;20454;-60
2022/08/18 00:31:41;;;;;;;1.75;1.65;;;;;;;20.63;61.94;96389.47;10526950;28;20048;-57
2022/08/18 00:37:00;;;;;;;1.60;1.50;;;;;;;20.62;61.95;96383.28;10496743;28;20059;-61
2022/08/18 00:42:26;;;;;;;1.70;1.60;;;;;;;20.62;62.05;96375.16;10496782;28;20051;-61
2022/08/18 00:47:45;;;;;;;1.63;1.50;;;;;;;20.63;61.97;96389.47;10497402;28;20462;-60
2022/08/18 00:53:14;;;;;;;1.55;1.45;;;;;;;20.64;61.96;96402.66;10509505;28;20041;-60
2022/08/18 00:58:37;;;;;;;1.88;1.60;;;;;;;20.63;61.99;96401.06;10471716;28;20369;-60
2022/08/18 01:04:06;;;;;;;1.40;1.30;;;;;;;20.62;62.04;96388.69;10505932;28;20090;-60
2022/08/18 01:09:26;;;;;;;1.48;1.38;;;;;;;20.63;61.99;96395.66;10535170;28;20476;-60
2022/08/18 01:14:45;;;;;;;1.60;1.50;;;;;;;20.63;61.95;96389.47;10517223;28;20044;-61
2022/08/18 01:26:00;;;;;;;1.70;1.60;;;;;;;20.63;61.94;96384.06;10441164;28;20037;-61
2022/08/18 01:31:36;;;;;;;1.70;1.60;;;;;;;20.63;61.94;96381.34;10408892;28;20057;-61
2022/08/18 01:36:56;;;;;;;1.65;1.55;;;;;;;20.63;62.05;96379.41;10429279;28;20053;-60
2022/08/18 01:42:16;;;;;;;1.60;1.50;;;;;;;20.63;61.97;96374.00;10423546;28;20080;-61
2022/08/18 01:47:35;;;;;;;1.75;1.65;;;;;;;20.64;61.93;96375.59;10447630;28;20041;-61
2022/08/18 01:52:55;;;;;;;1.60;1.50;;;;;;;20.64;61.99;96375.59;10421688;28;20049;-60
2022/08/18 01:58:14;;;;;;;1.73;1.60;;;;;;;20.63;62.01;96368.59;10421207;28;20053;-61
2022/08/18 02:03:43;;;;;;;2.15;1.67;;;;;;;20.64;62.01;96358.56;10434349;28;20057;-61
2022/08/18 02:09:03;;;;;;;1.83;1.63;;;;;;;20.63;61.93;96368.59;10448262;28;20182;-60
2022/08/18 02:14:23;;;;;;;1.63;1.52;;;;;;;20.64;62.03;96369.38;10420563;28;20049;-60
2022/08/18 02:19:44;;;;;;;1.60;1.50;;;;;;;20.65;61.97;96370.97;10421473;28;20064;-60
2022/08/18 02:25:04;;;;;;;1.50;1.40;;;;;;;20.64;61.97;96377.50;10496336;28;20053;-61
2022/08/18 02:30:23;;;;;;;1.63;1.52;;;;;;;20.63;61.93;96374.00;10516470;28;20377;-60
2022/08/18 02:35:45;;;;;;;1.60;1.50;;;;;;;20.64;62.00;96370.19;10521613;28;20045;-61
2022/08/18 02:41:08;;;;;;;1.60;1.50;;;;;;;20.64;61.97;96353.94;10503075;28;20040;-61
2022/08/18 02:46:27;;;;;;;1.58;1.48;;;;;;;20.65;62.02;96355.50;10501225;28;20053;-60
2022/08/18 02:51:47;;;;;;;1.73;1.63;;;;;;;20.64;61.87;96353.94;10523401;28;20043;-61
2022/08/18 02:57:09;;;;;;;1.63;1.52;;;;;;;20.65;62.02;96360.16;10508602;28;20044;-61
2022/08/18 03:02:30;;;;;;;1.52;1.42;;;;;;;20.65;61.91;96360.16;10511786;28;20052;-59
2022/08/18 03:07:50;;;;;;;1.80;1.70;;;;;;;20.64;61.85;96356.66;10512530;28;20052;-60
2022/08/18 03:13:10;;;;;;;1.70;1.60;;;;;;;20.65;61.99;96360.16;10500374;28;20044;-58
2022/08/18 03:18:29;;;;;;;1.60;1.50;;;;;;;20.64;61.86;96351.25;10494162;28;20048;-60
2022/08/18 03:23:50;;;;;;;1.65;1.55;;;;;;;20.66;61.87;96359.00;10511296;28;20174;-61
2022/08/18 03:29:11;;;;;;;1.70;1.60;;;;;;;20.64;62.03;96347.72;10500314;28;20064;-60
2022/08/18 03:34:31;;;;;;;1.70;1.60;;;;;;;20.65;61.91;96360.16;10504790;28;20048;-60
2022/08/18 03:39:51;;;;;;;1.70;1.60;;;;;;;20.65;61.86;96358.22;10513515;28;20396;-60
2022/08/18 03:45:10;;;;;;;1.67;1.58;;;;;;;20.65;61.91;96349.31;10503093;28;20044;-60
2022/08/18 03:50:31;;;;;;;1.60;1.50;;;;;;;20.65;61.88;96360.16;10505518;28;20055;-60
2022/08/18 03:55:50;;;;;;;1.60;1.50;;;;;;;20.65;61.92;96358.22;10499275;28;20151;-60
2022/08/18 04:01:14;;;;;;;1.90;1.80;;;;;;;20.65;61.78;96354.72;10512036;28;20078;-60
2022/08/18 04:06:58;;;;;;;1.55;1.45;;;;;;;20.63;61.88;96355.06;10510733;28;20067;-60
2022/08/18 04:12:17;;;;;;;5.88;4.00;;;;;;;20.60;60.05;96366.59;10533847;28;20053;-61
2022/08/18 04:17:37;;;;;;;5.57;4.55;;;;;;;20.48;59.38;96371.97;10511740;28;20048;-61
2022/08/18 04:22:57;;;;;;;5.35;4.80;;;;;;;20.38;59.51;96373.22;10510911;28;20053;-60
2022/08/18 04:28:16;;;;;;;4.97;4.38;;;;;;;20.32;59.68;96372.66;10513011;28;20052;-60
2022/08/18 04:33:37;;;;;;;5.03;4.50;;;;;;;20.33;59.52;96368.84;10501311;28;20472;-60
2022/08/18 04:38:57;;;;;;;6.47;4.60;;;;;;;20.34;59.55;96372.31;10494196;28;20051;-57
2022/08/18 04:44:17;;;;;;;6.80;4.65;;;;;;;20.30;60.21;96358.69;10511800;28;20044;-61
2022/08/18 04:49:37;;;;;;;9.60;5.15;;;;;;;20.30;60.20;96371.44;10535110;28;20056;-58
2022/08/18 04:54:57;;;;;;;7.43;4.70;;;;;;;20.28;60.76;96379.09;10486295;28;20545;-60
2022/08/18 05:00:18;;;;;;;9.38;4.90;;;;;;;20.31;61.09;96379.22;10499326;28;20071;-60
2022/08/18 05:05:37;;;;;;;6.00;4.90;;;;;;;20.34;61.20;96381.22;10493333;28;20056;-60
2022/08/18 05:10:58;;;;;;;5.53;5.03;;;;;;;20.39;61.42;96374.03;10498224;28;20049;-59
2022/08/18 05:16:17;;;;;;;8.50;5.30;;;;;;;20.42;61.29;96378.75;10508806;28;20055;-59
2022/08/18 05:21:40;;;;;;;21.25;8.40;;;;;;;20.43;61.41;96383.81;10515317;28;20067;-60
2022/08/18 05:27:00;;;;;;;16.52;9.07;;;;;;;20.45;61.34;96388.91;10505111;28;20094;-59
2022/08/18 05:32:20;;;;;;;16.23;7.40;;;;;;;20.45;61.42;96384.28;10509567;28;20098;-59
2022/08/18 05:37:52;;;;;;;13.18;6.68;;;;;;;20.47;61.45;96392.84;10504661;28;20057;-60
2022/08/18 05:43:14;;;;;;;10.70;6.68;;;;;;;20.49;61.39;96406.03;10504265;28;20055;-59
2022/08/18 05:48:34;;;;;;;15.00;7.35;;;;;;;20.49;61.46;96406.81;10509552;28;20071;-60
2022/08/18 05:59:35;;;;;;;15.43;7.43;;;;;;;20.50;61.45;96391.34;10512214;28;20043;-59
2022/08/18 06:04:57;;;;;;;12.30;7.07;;;;;;;20.52;61.51;96399.94;10502274;28;20446;-59
2022/08/18 06:10:18;;;;;;;13.45;7.45;;;;;;;20.51;61.52;96390.25;10488417;28;20052;-60
2022/08/18 06:15:47;;;;;;;13.93;7.72;;;;;;;20.52;61.56;96399.94;10520321;28;20055;-59
2022/08/18 06:21:11;;;;;;;12.88;7.07;;;;;;;20.51;61.54;96390.25;10502220;28;20048;-60
2022/08/18 06:26:55;;;;;;;13.82;7.57;;;;;;;20.52;61.50;96394.50;10503580;28;20106;-59
2022/08/18 06:32:36;;;;;;;15.70;7.32;;;;;;;20.51;61.64;96404.56;10517005;28;20047;-59
2022/08/18 06:38:40;;;;;;;11.00;7.10;;;;;;;20.53;61.62;96412.34;10515608;28;20049;-59
2022/08/18 06:44:03;;;;;;;13.75;7.30;;;;;;;20.52;61.58;96405.34;10514616;28;20045;-59
2022/08/18 06:49:41;;;;;;;13.85;7.28;;;;;;;20.52;61.57;96399.94;10501845;28;20057;-58
2022/08/18 06:55:11;;;;;;;14.00;7.38;;;;;;;20.52;61.62;96405.34;10490980;28;20055;-59
2022/08/18 07:00:33;;;;;;;12.75;7.45;;;;;;;20.52;61.75;96416.97;10534542;28;20052;-59
2022/08/18 07:06:20;;;;;;;11.43;6.80;;;;;;;20.54;61.68;96435.56;10513021;28;20362;-59
2022/08/18 07:11:42;;;;;;;11.35;7.05;;;;;;;20.54;61.68;96435.56;10515026;28;20056;-59
2022/08/18 07:17:06;;;;;;;14.27;7.10;;;;;;;20.53;61.74;96442.88;10510286;28;20421;-59
2022/08/18 07:22:26;;;;;;;12.18;7.50;;;;;;;20.54;61.71;96438.25;10505276;28;20610;-59
2022/08/18 07:27:48;;;;;;;14.02;7.30;;;;;;;20.54;61.82;96446.38;10520478;28;20048;-60
2022/08/18 07:33:18;;;;;;;10.13;7.05;;;;;;;20.54;61.79;96451.78;10524697;28;20075;-60
2022/08/18 07:38:38;;;;;;;11.70;7.10;;;;;;;20.56;61.91;96446.81;10503264;28;20047;-60
2022/08/18 07:44:15;;;;;;;13.38;7.53;;;;;;;20.56;61.92;96454.94;10510544;28;20473;-59
2022/08/18 07:49:35;;;;;;;11.07;7.07;;;;;;;20.55;61.81;96447.97;10499251;28;20055;-59
2022/08/18 07:55:00;;;;;;;10.70;6.85;;;;;;;20.55;61.92;96450.66;10473230;28;20051;-59
2022/08/18 08:00:22;;;;;;;11.27;7.35;;;;;;;20.56;61.94;96446.81;10516630;28;20404;-59
2022/08/18 08:05:49;;;;;;;9.95;6.68;;;;;;;20.55;61.74;96437.91;10525416;28;20765;-60
2022/08/18 08:11:16;;;;;;;9.40;6.55;;;;;;;20.55;62.05;96443.34;10503967;28;20048;-59
2022/08/18 08:16:39;;;;;;;10.75;6.43;;;;;;;20.57;61.93;96447.63;10525024;28;20097;-59
2022/08/18 08:22:12;;;;;;;14.23;6.75;;;;;;;20.57;61.99;96437.59;10534507;28;20056;-59
2022/08/18 08:27:38;;;;;;;9.93;6.53;;;;;;;20.57;62.04;96434.88;10509967;28;20048;-59
2022/08/18 08:33:41;;;;;;;9.38;6.43;;;;;;;20.59;62.16;96431.84;10537086;28;20070;-60
2022/08/18 08:39:04;;;;;;;9.48;6.65;;;;;;;20.58;61.91;96422.13;10494088;28;20048;-59
2022/08/18 08:44:40;;;;;;;9.45;6.45;;;;;;;20.59;62.25;96421.03;10512495;28;20044;-59
2022/08/18 08:50:21;;;;;;;9.70;6.55;;;;;;;20.58;62.08;96412.13;10482171;28;20048;-58
2022/08/18 08:55:45;;;;;;;10.05;6.32;;;;;;;20.57;62.20;96397.00;10501245;28;20102;-60
2022/08/18 09:01:07;;;;;;;11.50;6.70;;;;;;;20.58;62.25;96387.75;10481412;28;20086;-59
2022/08/18 09:06:53;;;;;;;11.13;6.80;;;;;;;20.58;62.36;96370.72;10502224;28;20048;-60
2022/08/18 09:12:42;;;;;;;8.50;6.15;;;;;;;20.59;62.26;96356.06;10503009;28;20114;-60
2022/08/18 09:18:19;;;;;;;10.25;6.25;;;;;;;20.59;62.42;96356.06;10481866;28;20049;-59
2022/08/18 09:23:42;;;;;;;10.15;6.13;;;;;;;20.59;62.40;96350.66;10501287;28;20117;-60
2022/08/18 09:29:20;;;;;;;9.65;6.30;;;;;;;20.59;62.50;96337.94;10481592;28;20052;-59
2022/08/18 09:34:52;;;;;;;;;;;;;;;20.60;62.60;96325.19;10496188;28;20071;-59
2022/08/18 09:46:03;;;;;;;7.28;6.13;;;;;;;20.60;62.49;96317.88;10486186;28;20488;-59
2022/08/18 09:52:18;;;;;;;6.72;5.55;;;;;;;20.62;62.61;96322.91;10496371;28;20052;-59
2022/08/18 09:57:38;;;;;;;9.50;6.30;;;;;;;20.60;62.59;96309.75;10497400;28;20044;-60
2022/08/18 10:03:09;;;;;;;8.20;6.28;;;;;;;20.62;62.52;96309.41;10504041;28;20041;-60
2022/08/18 10:08:56;;;;;;;8.45;5.88;;;;;;;20.60;62.45;96312.47;10507726;28;20503;-60
2022/08/18 10:14:33;;;;;;;9.25;5.93;;;;;;;20.61;62.52;96314.03;10504406;28;20108;-60
2022/08/18 10:20:29;;;;;;;11.40;6.38;;;;;;;20.63;62.78;96308.28;10505546;28;20052;-59
2022/08/18 10:25:49;;;;;;;7.40;5.50;;;;;;;20.62;62.55;96295.84;10504113;28;20044;-60
2022/08/18 10:31:08;;;;;;;7.78;5.70;;;;;;;20.62;62.68;96307.50;10518353;28;20480;-60
2022/08/18 10:36:38;;;;;;;7.80;5.82;;;;;;;20.64;62.72;96285.47;10507169;28;20051;-60
2022/08/18 10:42:02;;;;;;;7.85;5.78;;;;;;;20.63;62.76;96281.22;10482298;28;20048;-60
2022/08/18 10:47:28;;;;;;;7.82;5.90;;;;;;;20.63;62.80;96283.91;10502020;28;20057;-57
2022/08/18 10:53:14;;;;;;;6.13;5.13;;;;;;;20.64;62.72;96296.31;10507232;28;20102;-60
2022/08/18 10:58:45;;;;;;;7.70;5.93;;;;;;;20.63;62.79;96298.22;10494462;28;20110;-60
2022/08/18 11:04:07;;;;;;;8.07;5.60;;;;;;;20.64;62.79;96316.06;10516028;28;20499;-60
2022/08/18 11:09:28;;;;;;;7.63;5.55;;;;;;;20.64;62.65;96310.66;10496875;28;20071;-59
2022/08/18 11:15:16;;;;;;;6.63;5.18;;;;;;;20.65;62.83;96314.91;10487070;28;20094;-60
2022/08/18 11:20:38;;;;;;;8.82;5.38;;;;;;;20.65;62.79;96301.38;10499465;28;20564;-60
2022/08/18 11:26:12;;;;;;;6.00;4.95;;;;;;;20.65;62.82;96300.59;10514422;28;20040;-59
2022/08/18 11:31:32;;;;;;;5.72;4.93;;;;;;;20.66;62.70;96297.56;10500304;28;20056;-60
2022/08/18 11:36:59;;;;;;;6.43;5.03;;;;;;;20.65;62.80;96295.97;10502127;28;20057;-60
2022/08/18 11:42:26;;;;;;;6.35;5.35;;;;;;;20.66;62.87;96297.56;10500957;28;20045;-59
2022/08/18 11:48:13;;;;;;;5.82;5.15;;;;;;;20.60;60.80;96301.63;10499504;28;20068;-60
2022/08/18 11:53:37;;;;;;;5.82;4.90;;;;;;;20.47;58.43;96300.84;10512809;28;20036;-59
2022/08/18 11:58:59;;;;;;;6.43;5.50;;;;;;;20.38;58.05;96285.88;10499219;28;20059;-60
2022/08/18 12:04:19;;;;;;;5.68;4.90;;;;;;;20.33;58.45;96293.09;10516938;28;20043;-59
2022/08/18 12:10:37;;;;;;;5.60;4.75;;;;;;;20.34;59.04;96281.13;10498719;28;20052;-60
2022/08/18 12:16:15;;;;;;;5.95;5.10;;;;;;;20.33;59.30;96276.88;10491976;28;20059;-59
2022/08/18 12:21:41;;;;;;;5.97;5.00;;;;;;;20.34;59.85;96254.06;10513100;28;20507;-58
2022/08/18 12:27:02;;;;;;;6.70;5.25;;;;;;;20.41;60.17;96255.44;10497212;28;20495;-60
2022/08/18 12:32:23;;;;;;;5.45;4.57;;;;;;;20.44;60.34;96258.22;10508288;28;20040;-60
2022/08/18 12:37:43;;;;;;;5.75;4.75;;;;;;;20.49;60.65;96254.50;10502722;28;20411;-59
2022/08/18 12:43:03;;;;;;;5.88;5.00;;;;;;;20.51;60.66;96234.09;10510307;28;20052;-59
2022/08/18 12:48:23;;;;;;;5.20;4.70;;;;;;;20.54;60.81;96219.06;10525475;28;20062;-58
2022/08/18 12:53:42;;;;;;;5.07;4.57;;;;;;;20.56;60.77;96205.97;10509335;28;20064;-59
2022/08/18 12:59:04;;;;;;;5.55;4.60;;;;;;;20.57;60.93;96204.84;10502788;28;20048;-59
2022/08/18 13:04:24;;;;;;;5.88;4.22;;;;;;;20.58;61.02;96206.44;10497394;28;20058;-58
2022/08/18 13:09:43;;;;;;;5.10;4.57;;;;;;;20.59;61.23;96191.81;10497174;28;20052;-59
2022/08/18 13:15:04;;;;;;;4.90;4.40;;;;;;;20.61;61.21;96199.59;10518632;28;20044;-59
2022/08/18 13:20:24;;;;;;;5.03;4.53;;;;;;;20.61;61.28;96205.78;10513873;28;20052;-56
2022/08/18 13:25:43;;;;;;;5.25;4.60;;;;;;;20.62;61.39;96193.81;10503067;28;20044;-58
2022/08/18 13:31:03;;;;;;;5.30;4.47;;;;;;;20.62;61.51;96188.41;10517210;28;20060;-59
2022/08/18 13:36:24;;;;;;;4.95;4.43;;;;;;;20.63;61.61;96197.31;10515761;28;20036;-58
2022/08/18 13:41:46;;;;;;;4.85;4.15;;;;;;;20.64;61.64;96188.84;10507424;28;20048;-59
2022/08/18 13:47:05;;;;;;;5.00;4.30;;;;;;;20.65;61.63;96200.47;10502694;28;20040;-58
2022/08/18 13:52:27;;;;;;;4.95;4.45;;;;;;;20.67;61.65;96195.50;10517565;28;20094;-60
2022/08/18 13:57:49;;;;;;;4.50;4.10;;;;;;;20.67;61.80;96192.78;10511490;28;20115;-59
2022/08/18 14:03:09;;;;;;;4.50;3.97;;;;;;;20.67;61.79;96180.03;10530511;28;20045;-59
2022/08/18 14:08:30;;;;;;;4.97;4.32;;;;;;;20.68;61.86;96180.81;10503360;28;20403;-61
2022/08/18 14:13:49;;;;;;;4.57;4.18;;;;;;;20.68;61.79;96187.03;10515585;28;20048;-59
2022/08/18 14:30:25;;;;;;;9.98;4.00;;;;;;;20.72;62.31;96193.31;10533558;28;20094;-59
2022/08/18 14:35:46;;;;;;;6.30;3.85;;;;;;;20.73;62.06;96178.63;10521130;28;20040;-60
2022/08/18 14:41:07;;;;;;;5.40;4.10;;;;;;;20.74;62.21;96184.88;10519655;28;20060;-59
2022/08/18 14:46:27;;;;;;;9.27;4.43;;;;;;;20.74;62.11;96176.75;10504028;28;20109;-60
2022/08/18 14:51:49;;;;;;;6.75;3.92;;;;;;;20.75;62.17;96178.31;10514994;28;20037;-60
2022/08/18 14:57:10;;;;;;;10.02;4.13;;;;;;;20.76;62.26;96181.78;10501351;28;20044;-59
2022/08/18 15:02:30;;;;;;;8.77;4.15;;;;;;;20.79;62.36;96181.09;10519102;28;20476;-59
2022/08/18 15:07:49;;;;;;;11.00;3.80;;;;;;;20.78;62.42;96185.75;10501003;28;20052;-59
2022/08/18 15:13:09;;;;;;;8.52;4.00;;;;;;;20.76;61.35;96169.06;10500895;28;20053;-59
2022/08/18 15:18:28;;;;;;;9.70;4.03;;;;;;;20.69;59.43;96161.53;10512710;28;20511;-60
2022/08/18 15:29:26;;;;;;;6.82;3.97;;;;;;;20.42;55.24;96152.25;10505688;28;20127;-60
2022/08/18 15:34:46;;;;;;;8.73;3.80;;;;;;;20.38;55.92;96151.38;10501142;28;20045;-61
2022/08/18 15:40:15;;;;;;;11.18;3.63;;;;;;;20.39;57.35;96150.25;10500710;28;20421;-60
2022/08/18 15:45:38;;;;;;;6.55;3.72;;;;;;;20.43;58.11;96120.59;10511841;28;20044;-60
2022/08/18 15:50:58;;;;;;;6.18;3.78;;;;;;;20.48;58.96;96121.16;10526132;28;20056;-60
2022/08/18 15:56:20;;;;;;;7.10;3.90;;;;;;;20.52;59.15;96105.78;10563971;28;20487;-61
2022/08/18 16:01:39;;;;;;;5.47;3.40;;;;;;;20.55;59.53;96110.50;10499833;28;20055;-60
2022/08/18 16:06:59;;;;;;;7.18;3.60;;;;;;;20.59;59.54;96102.50;10498621;28;20389;-60
2022/08/18 16:12:18;;;;;;;7.72;4.00;;;;;;;20.61;59.56;96094.81;10537372;28;20090;-60
2022/08/18 16:17:37;;;;;;;7.60;3.40;;;;;;;20.63;59.77;96089.06;10487817;28;20059;-60
2022/08/18 16:22:57;;;;;;;6.32;3.70;;;;;;;20.63;59.78;96087.13;10497728;28;20067;-59
2022/08/18 16:28:16;;;;;;;5.82;3.53;;;;;;;20.66;59.99;96077.53;10539986;28;20483;-59
2022/08/18 16:33:36;;;;;;;4.93;3.38;;;;;;;20.64;59.15;96053.53;10523026;28;20052;-61
2022/08/18 16:38:55;;;;;;;7.07;3.08;;;;;;;20.64;59.62;96053.53;10525631;28;20059;-59
2022/08/18 16:44:15;;;;;;;7.82;3.40;;;;;;;20.65;59.64;96048.91;10522997;28;20102;-59
2022/08/18 16:49:35;;;;;;;5.70;3.30;;;;;;;20.65;59.82;96057.81;10510726;28;20420;-58
2022/08/18 16:54:54;;;;;;;5.63;3.20;;;;;;;20.68;59.85;96051.69;10526506;28;20051;-57
2022/08/18 17:06:04;;;;;;;6.00;3.42;;;;;;;20.71;60.10;96055.63;10509687;28;20051;-59
2022/08/18 17:11:26;;;;;;;5.30;3.08;;;;;;;20.71;60.09;96051.00;10500667;28;20063;-59
2022/08/18 17:16:45;;;;;;;7.40;3.10;;;;;;;20.72;60.21;96040.97;10511057;28;20049;-59
2022/08/18 17:22:05;;;;;;;5.32;3.38;;;;;;;20.72;60.22;96028.22;10522159;28;20060;-58
2022/08/18 17:27:30;;;;;;;5.07;3.10;;;;;;;20.71;60.08;96021.22;10505581;28;20050;-59
2022/08/18 17:33:08;;;;;;;6.03;3.10;;;;;;;20.71;59.84;96023.91;10512757;28;20055;-58
2022/08/18 17:38:38;;;;;;;7.72;2.95;;;;;;;20.71;59.55;96029.34;10519952;28;20040;-60
2022/08/18 17:43:58;;;;;;;3.05;2.38;;;;;;;20.72;59.42;96020.09;10513664;28;20388;-59
2022/08/18 17:51:32;;;;;;;5.60;2.65;;;;;;;20.72;59.53;96030.91;10496499;28;20051;-59
2022/08/18 17:55:19;;;;;;;6.20;2.97;;;;;;;20.72;59.57;96020.09;10495798;28;20404;-59
2022/08/18 18:00:39;;;;;;;4.85;2.67;;;;;;;20.72;59.73;96009.25;10504448;28;20480;-58
2022/08/18 18:06:15;;;;;;;5.70;2.65;;;;;;;20.72;59.88;96009.25;10482208;28;20063;-58
2022/08/18 18:11:40;;;;;;;3.75;2.60;;;;;;;20.72;59.85;96003.84;10519218;28;20052;-58
2022/08/18 18:17:04;;;;;;;3.90;2.63;;;;;;;20.73;59.94;95978.34;10522200;28;20043;-59
2022/08/18 18:22:26;;;;;;;3.28;2.63;;;;;;;20.73;60.04;95966.75;10515892;28;20057;-59
2022/08/18 18:27:46;;;;;;;4.03;2.97;;;;;;;20.74;60.32;95958.28;10520910;28;20048;-59
2022/08/18 18:33:14;;;;;;;5.60;2.70;;;;;;;20.73;60.25;95956.69;10541938;28;20044;-59
2022/08/18 18:38:36;;;;;;;6.40;2.70;;;;;;;20.75;60.31;95969.88;10524031;28;20047;-59
2022/08/18 18:44:10;;;;;;;3.60;2.65;;;;;;;20.75;60.47;95942.81;10506581;28;20094;-59
2022/08/18 18:50:05;;;;;;;4.95;2.90;;;;;;;20.75;60.49;95937.41;10502004;28;20048;-59
2022/08/18 18:55:27;;;;;;;4.75;2.67;;;;;;;20.76;60.47;95933.56;10507600;28;20110;-59
2022/08/18 19:00:49;;;;;;;3.53;2.72;;;;;;;20.76;60.81;95921.94;10502020;28;20066;-60
2022/08/18 19:06:18;;;;;;;5.38;2.92;;;;;;;-146.19;100.00;65364.44;10491543;28;20500;-61
2022/08/18 19:11:40;;;;;;;3.53;2.70;;;;;;;-146.19;100.00;65364.44;10531579;28;20040;-58
2022/08/18 19:17:19;;;;;;;3.55;2.72;;;;;;;20.76;60.81;95921.94;10514390;28;20052;-69
2022/08/18 19:22:41;;;;;;;5.70;2.97;;;;;;;20.76;61.52;95949.00;10504527;28;20056;-63
2022/08/18 19:28:06;;;;;;;4.10;2.88;;;;;;;20.77;61.53;95945.16;10505409;28;20060;-61
2022/08/18 19:33:38;;;;;;;4.55;2.97;;;;;;;-146.19;100.00;65364.44;10500203;28;20113;-67
2022/08/18 19:39:17;;;;;;;3.05;2.70;;;;;;;20.77;61.53;95945.16;10514476;28;20048;-62
2022/08/18 19:44:52;;;;;;;3.15;2.85;;;;;;;20.78;62.15;95990.84;10523612;28;20459;-68
2022/08/18 19:50:30;;;;;;;4.28;2.90;;;;;;;20.78;62.40;95998.16;10502732;28;20060;-60
2022/08/18 19:55:53;;;;;;;3.53;3.03;;;;;;;20.78;62.61;95995.44;10554633;28;20039;-59
2022/08/18 20:01:20;;;;;;;3.17;2.65;;;;;;;-146.19;100.00;65364.44;10532775;28;20458;-65
2022/08/18 20:07:00;;;;;;;4.63;2.80;;;;;;;20.81;62.92;96006.38;10505946;28;20048;-61
2022/08/18 20:12:33;;;;;;;4.07;2.90;;;;;;;20.82;63.05;96020.72;10523528;28;20048;-60
2022/08/18 20:17:56;;;;;;;3.60;2.85;;;;;;;20.81;63.03;96016.41;10520768;28;20051;-57
2022/08/18 20:23:37;;;;;;;4.15;2.92;;;;;;;20.82;63.25;96018.78;10508143;28;20105;-68
2022/08/18 20:28:57;;;;;;;4.28;2.72;;;;;;;20.81;63.29;96011.78;10495631;28;20048;-56
2022/08/18 20:34:21;;;;;;;4.38;2.83;;;;;;;20.82;63.34;96021.47;10510300;28;20047;-56
2022/08/18 20:39:57;;;;;;;4.03;2.78;;;;;;;20.83;63.50;96019.56;10523638;28;20049;-61
2022/08/18 20:45:27;;;;;;;13.43;2.90;;;;;;;20.84;63.82;96021.91;10497535;28;20051;-59
2022/08/18 20:50:56;;;;;;;2.85;2.65;;;;;;;20.85;64.06;96025.41;10497872;28;20052;-58
2022/08/18 20:56:38;;;;;;;3.85;3.45;;;;;;;20.84;63.93;96049.00;10514359;28;20044;-59
2022/08/18 21:02:33;;;;;;;3.05;2.58;;;;;;;20.85;63.75;96047.06;10495997;28;20056;-58
2022/08/18 21:08:19;;;;;;;4.70;2.75;;;;;;;20.85;63.87;96044.34;10505455;28;20052;-58
2022/08/18 21:13:44;;;;;;;2.83;2.42;;;;;;;20.85;63.85;96055.97;10474839;28;20118;-58
2022/08/18 21:19:13;;;;;;;2.92;2.67;;;;;;;20.86;63.93;96073.78;10523242;28;20048;-58
2022/08/18 21:24:41;;;;;;;3.67;2.75;;;;;;;20.86;63.78;96070.31;10513072;28;20063;-58
2022/08/18 21:30:04;;;;;;;;;;;;;;;20.86;64.10;96078.44;10510757;28;20048;-58
2022/08/18 21:35:26;;;;;;;2.90;2.60;;;;;;;20.86;63.72;96086.53;10523949;28;19924;-59
2022/08/18 21:40:47;;;;;;;2.92;2.63;;;;;;;20.85;63.89;96093.84;10525756;28;20434;-59
2022/08/18 21:46:08;;;;;;;3.35;2.72;;;;;;;20.86;63.89;96108.19;10509947;28;20094;-59
2022/08/18 21:51:30;;;;;;;4.22;2.72;;;;;;;20.87;63.85;96120.59;10483734;28;20071;-59
2022/08/18 21:57:22;;;;;;;3.50;2.90;;;;;;;20.86;63.79;96105.50;10529425;28;20044;-58
2022/08/18 22:02:42;;;;;;;10.90;3.17;;;;;;;20.86;63.83;96127.16;10502985;28;20123;-58
2022/08/18 22:08:01;;;;;;;3.08;2.70;;;;;;;20.86;63.82;96124.44;10508183;28;20050;-58
2022/08/18 22:19:17;;;;;;;3.25;2.60;;;;;;;20.86;63.74;96133.34;10503443;28;20060;-58
2022/08/18 22:24:37;;;;;;;2.63;2.42;;;;;;;20.88;63.75;96124.88;10506728;28;20056;-59
2022/08/18 22:30:05;;;;;;;2.55;2.35;;;;;;;20.87;63.74;96126.78;10502975;28;20063;-59
2022/08/18 22:35:26;;;;;;;3.25;2.80;;;;;;;20.88;63.78;96124.88;10502349;28;20511;-58
2022/08/18 22:40:45;;;;;;;2.83;2.63;;;;;;;20.87;63.86;96134.13;10506866;28;20056;-58
2022/08/18 22:46:04;;;;;;;2.80;2.58;;;;;;;20.87;63.81;96126.00;10502348;28;20048;-58
2022/08/18 22:51:25;;;;;;;2.85;2.55;;;;;;;20.87;63.81;96155.78;10528817;28;20044;-58
2022/08/18 22:56:45;;;;;;;2.80;2.60;;;;;;;20.88;63.77;96146.53;10529671;28;20074;-58
2022/08/18 23:02:05;;;;;;;2.83;2.63;;;;;;;20.88;63.86;96146.53;10518144;28;20044;-58
2022/08/18 23:07:24;;;;;;;2.60;2.40;;;;;;;20.88;63.83;96151.97;10515624;28;20057;-58
2022/08/18 23:12:45;;;;;;;2.88;2.65;;;;;;;20.89;63.76;96145.41;10502900;28;20032;-58
2022/08/18 23:18:05;;;;;;;2.92;2.65;;;;;;;20.89;63.73;96148.09;10514191;28;20082;-58
2022/08/18 23:23:26;;;;;;;3.05;2.75;;;;;;;20.88;63.80;96146.53;10525583;28;20060;-58
2022/08/18 23:28:47;;;;;;;2.80;2.60;;;;;;;20.89;63.82;96148.09;10538180;28;20075;-59
2022/08/18 23:34:06;;;;;;;2.95;2.60;;;;;;;20.88;63.74;96150.03;10505576;28;20613;-58
2022/08/18 23:39:28;;;;;;;3.08;2.50;;;;;;;20.89;63.83;96142.69;10517264;28;20056;-58
2022/08/18 23:44:47;;;;;;;3.88;2.50;;;;;;;20.88;63.85;96138.41;10499713;28;20044;-58
2022/08/18 23:50:06;;;;;;;2.55;2.35;;;;;;;20.89;63.76;96132.63;10503904;28;20048;-59
2022/08/18 23:55:26;;;;;;;2.42;2.28;;;;;;;20.89;63.84;96129.16;10499435;28;20052;-58
